sensor_id;sensor_type;location;lat;lon;timestamp;P1;durP1;ratioP1;P2;durP2;ratioP2
7501;SDS011;3792;47.740;7.606;2023-04-01T00:00:45;0.53;;;0.40;;
7501;SDS011;3792;47.740;7.606;2023-04-01T00:03:12;0.50;;;0.40;;
7501;SDS011;3792;47.740;7.606;2023-04-01T00:05:39;1.23;;;0.60;;
7501;SDS011;3792;47.740;7.606;2023-04-01T00:08:06;1.47;;;0.50;;
7501;SDS011;3792;47.740;7.606;2023-04-01T00:10:33;0.30;;;0.30;;
7501;SDS011;3792;47.740;7.606;2023-04-01T00:13:02;0.50;;;0.43;;
7501;SDS011;3792;47.740;7.606;2023-04-01T00:15:30;0.50;;;0.50;;
7501;SDS011;3792;47.740;7.606;2023-04-01T00:17:57;1.43;;;0.23;;
7501;SDS011;3792;47.740;7.606;2023-04-01T00:20:24;2.33;;;0.83;;
7501;SDS011;3792;47.740;7.606;2023-04-01T00:22:51;3.77;;;0.60;;
7501;SDS011;3792;47.740;7.606;2023-04-01T00:25:18;0.50;;;0.50;;
7501;SDS011;3792;47.740;7.606;2023-04-01T00:27:45;2.13;;;0.70;;
7501;SDS011;3792;47.740;7.606;2023-04-01T00:30:14;3.97;;;0.67;;
7501;SDS011;3792;47.740;7.606;2023-04-01T00:32:41;2.23;;;0.60;;
7501;SDS011;3792;47.740;7.606;2023-04-01T00:35:08;2.90;;;0.90;;
7501;SDS011;3792;47.740;7.606;2023-04-01T00:37:37;2.67;;;0.70;;
7501;SDS011;3792;47.740;7.606;2023-04-01T00:40:06;2.23;;;1.03;;
7501;SDS011;3792;47.740;7.606;2023-04-01T00:42:46;6.77;;;1.30;;
7501;SDS011;3792;47.740;7.606;2023-04-01T00:45:25;3.63;;;1.10;;
7501;SDS011;3792;47.740;7.606;2023-04-01T00:47:58;1.83;;;0.70;;
7501;SDS011;3792;47.740;7.606;2023-04-01T00:50:28;4.50;;;1.13;;
7501;SDS011;3792;47.740;7.606;2023-04-01T00:52:56;4.53;;;1.27;;
7501;SDS011;3792;47.740;7.606;2023-04-01T00:55:25;1.80;;;0.80;;
7501;SDS011;3792;47.740;7.606;2023-04-01T00:57:56;2.83;;;1.00;;
7501;SDS011;3792;47.740;7.606;2023-04-01T01:00:26;3.23;;;1.10;;
7501;SDS011;3792;47.740;7.606;2023-04-01T01:02:53;5.43;;;1.20;;
7501;SDS011;3792;47.740;7.606;2023-04-01T01:05:28;4.30;;;1.00;;
7501;SDS011;3792;47.740;7.606;2023-04-01T01:08:05;6.03;;;1.20;;
7501;SDS011;3792;47.740;7.606;2023-04-01T01:10:41;7.00;;;1.70;;
7501;SDS011;3792;47.740;7.606;2023-04-01T01:13:15;9.03;;;2.03;;
7501;SDS011;3792;47.740;7.606;2023-04-01T01:15:46;7.00;;;1.63;;
7501;SDS011;3792;47.740;7.606;2023-04-01T01:18:19;6.70;;;2.00;;
7501;SDS011;3792;47.740;7.606;2023-04-01T01:20:57;8.90;;;1.87;;
7501;SDS011;3792;47.740;7.606;2023-04-01T01:26:53;10.37;;;1.80;;
7501;SDS011;3792;47.740;7.606;2023-04-01T01:32:44;7.73;;;1.80;;
7501;SDS011;3792;47.740;7.606;2023-04-01T01:35:33;8.70;;;2.10;;
7501;SDS011;3792;47.740;7.606;2023-04-01T01:38:04;8.73;;;2.03;;
7501;SDS011;3792;47.740;7.606;2023-04-01T01:43:24;8.33;;;2.03;;
7501;SDS011;3792;47.740;7.606;2023-04-01T01:45:54;8.13;;;1.83;;
7501;SDS011;3792;47.740;7.606;2023-04-01T01:48:23;7.80;;;1.77;;
7501;SDS011;3792;47.740;7.606;2023-04-01T01:50:52;7.20;;;1.73;;
7501;SDS011;3792;47.740;7.606;2023-04-01T01:53:20;6.67;;;1.73;;
7501;SDS011;3792;47.740;7.606;2023-04-01T01:55:47;6.77;;;1.50;;
7501;SDS011;3792;47.740;7.606;2023-04-01T01:58:15;6.33;;;1.57;;
7501;SDS011;3792;47.740;7.606;2023-04-01T02:00:48;7.83;;;2.20;;
7501;SDS011;3792;47.740;7.606;2023-04-01T02:03:19;6.00;;;1.80;;
7501;SDS011;3792;47.740;7.606;2023-04-01T02:05:48;6.80;;;1.93;;
7501;SDS011;3792;47.740;7.606;2023-04-01T02:08:20;10.60;;;1.80;;
7501;SDS011;3792;47.740;7.606;2023-04-01T02:10:52;6.87;;;1.93;;
7501;SDS011;3792;47.740;7.606;2023-04-01T02:13:26;5.70;;;2.10;;
7501;SDS011;3792;47.740;7.606;2023-04-01T02:15:58;6.87;;;1.70;;
7501;SDS011;3792;47.740;7.606;2023-04-01T02:18:30;8.73;;;2.10;;
7501;SDS011;3792;47.740;7.606;2023-04-01T02:21:01;5.37;;;1.27;;
7501;SDS011;3792;47.740;7.606;2023-04-01T02:23:31;7.37;;;1.87;;
7501;SDS011;3792;47.740;7.606;2023-04-01T02:25:59;7.53;;;1.73;;
7501;SDS011;3792;47.740;7.606;2023-04-01T02:28:27;7.27;;;2.10;;
7501;SDS011;3792;47.740;7.606;2023-04-01T02:30:57;7.83;;;1.53;;
7501;SDS011;3792;47.740;7.606;2023-04-01T02:33:27;5.80;;;1.77;;
7501;SDS011;3792;47.740;7.606;2023-04-01T02:35:56;4.83;;;1.53;;
7501;SDS011;3792;47.740;7.606;2023-04-01T02:38:24;7.50;;;1.90;;
7501;SDS011;3792;47.740;7.606;2023-04-01T02:40:56;4.70;;;1.33;;
7501;SDS011;3792;47.740;7.606;2023-04-01T02:43:25;6.87;;;1.70;;
7501;SDS011;3792;47.740;7.606;2023-04-01T02:45:52;5.67;;;1.93;;
7501;SDS011;3792;47.740;7.606;2023-04-01T02:48:20;6.30;;;1.27;;
7501;SDS011;3792;47.740;7.606;2023-04-01T02:50:47;5.73;;;1.50;;
7501;SDS011;3792;47.740;7.606;2023-04-01T02:53:14;8.80;;;1.70;;
7501;SDS011;3792;47.740;7.606;2023-04-01T02:55:42;7.13;;;1.80;;
7501;SDS011;3792;47.740;7.606;2023-04-01T02:58:11;6.80;;;1.57;;
7501;SDS011;3792;47.740;7.606;2023-04-01T03:00:38;5.03;;;1.50;;
7501;SDS011;3792;47.740;7.606;2023-04-01T03:03:05;6.73;;;1.63;;
7501;SDS011;3792;47.740;7.606;2023-04-01T03:05:32;3.43;;;1.30;;
7501;SDS011;3792;47.740;7.606;2023-04-01T03:07:59;5.47;;;1.33;;
7501;SDS011;3792;47.740;7.606;2023-04-01T03:10:26;7.33;;;1.47;;
7501;SDS011;3792;47.740;7.606;2023-04-01T03:12:53;5.53;;;1.40;;
7501;SDS011;3792;47.740;7.606;2023-04-01T03:15:21;3.97;;;1.23;;
7501;SDS011;3792;47.740;7.606;2023-04-01T03:17:48;3.73;;;1.10;;
7501;SDS011;3792;47.740;7.606;2023-04-01T03:20:16;6.00;;;1.67;;
7501;SDS011;3792;47.740;7.606;2023-04-01T03:22:44;4.47;;;1.07;;
7501;SDS011;3792;47.740;7.606;2023-04-01T03:25:11;6.87;;;1.17;;
7501;SDS011;3792;47.740;7.606;2023-04-01T03:27:39;4.40;;;1.20;;
7501;SDS011;3792;47.740;7.606;2023-04-01T03:30:06;3.03;;;1.47;;
7501;SDS011;3792;47.740;7.606;2023-04-01T03:32:35;3.40;;;1.00;;
7501;SDS011;3792;47.740;7.606;2023-04-01T03:35:03;6.67;;;1.47;;
7501;SDS011;3792;47.740;7.606;2023-04-01T03:37:31;4.47;;;1.03;;
7501;SDS011;3792;47.740;7.606;2023-04-01T03:39:58;9.20;;;1.60;;
7501;SDS011;3792;47.740;7.606;2023-04-01T03:42:25;4.00;;;1.27;;
7501;SDS011;3792;47.740;7.606;2023-04-01T03:44:52;6.20;;;1.77;;
7501;SDS011;3792;47.740;7.606;2023-04-01T03:47:19;7.07;;;1.50;;
7501;SDS011;3792;47.740;7.606;2023-04-01T03:49:47;4.53;;;1.37;;
7501;SDS011;3792;47.740;7.606;2023-04-01T03:52:14;3.20;;;1.33;;
7501;SDS011;3792;47.740;7.606;2023-04-01T03:54:41;5.03;;;1.30;;
7501;SDS011;3792;47.740;7.606;2023-04-01T03:57:08;4.43;;;1.53;;
7501;SDS011;3792;47.740;7.606;2023-04-01T03:59:35;3.73;;;1.40;;
7501;SDS011;3792;47.740;7.606;2023-04-01T04:02:02;8.00;;;1.63;;
7501;SDS011;3792;47.740;7.606;2023-04-01T04:04:30;4.27;;;1.30;;
7501;SDS011;3792;47.740;7.606;2023-04-01T04:06:58;4.07;;;1.40;;
7501;SDS011;3792;47.740;7.606;2023-04-01T04:09:25;2.63;;;1.33;;
7501;SDS011;3792;47.740;7.606;2023-04-01T04:11:52;4.67;;;1.30;;
7501;SDS011;3792;47.740;7.606;2023-04-01T04:14:19;5.10;;;1.10;;
7501;SDS011;3792;47.740;7.606;2023-04-01T04:16:46;6.10;;;1.73;;
7501;SDS011;3792;47.740;7.606;2023-04-01T04:19:13;2.90;;;1.20;;
7501;SDS011;3792;47.740;7.606;2023-04-01T04:21:40;6.03;;;1.30;;
7501;SDS011;3792;47.740;7.606;2023-04-01T04:24:09;6.27;;;1.50;;
7501;SDS011;3792;47.740;7.606;2023-04-01T04:26:36;6.13;;;1.90;;
7501;SDS011;3792;47.740;7.606;2023-04-01T04:29:03;3.53;;;1.27;;
7501;SDS011;3792;47.740;7.606;2023-04-01T04:31:30;4.43;;;1.13;;
7501;SDS011;3792;47.740;7.606;2023-04-01T04:33:58;5.73;;;1.40;;
7501;SDS011;3792;47.740;7.606;2023-04-01T04:36:26;4.47;;;1.40;;
7501;SDS011;3792;47.740;7.606;2023-04-01T04:38:53;3.70;;;1.30;;
7501;SDS011;3792;47.740;7.606;2023-04-01T04:41:21;2.27;;;0.97;;
7501;SDS011;3792;47.740;7.606;2023-04-01T04:43:49;4.77;;;1.13;;
7501;SDS011;3792;47.740;7.606;2023-04-01T04:46:17;4.87;;;1.30;;
7501;SDS011;3792;47.740;7.606;2023-04-01T04:48:44;4.57;;;1.20;;
7501;SDS011;3792;47.740;7.606;2023-04-01T04:51:15;2.53;;;1.07;;
7501;SDS011;3792;47.740;7.606;2023-04-01T04:53:43;2.57;;;1.03;;
7501;SDS011;3792;47.740;7.606;2023-04-01T04:56:11;3.83;;;1.10;;
7501;SDS011;3792;47.740;7.606;2023-04-01T04:58:39;3.03;;;1.37;;
7501;SDS011;3792;47.740;7.606;2023-04-01T05:01:07;2.70;;;1.43;;
7501;SDS011;3792;47.740;7.606;2023-04-01T05:03:36;4.37;;;1.23;;
7501;SDS011;3792;47.740;7.606;2023-04-01T05:06:04;3.87;;;1.00;;
7501;SDS011;3792;47.740;7.606;2023-04-01T05:08:33;4.40;;;1.03;;
7501;SDS011;3792;47.740;7.606;2023-04-01T05:11:00;3.70;;;1.00;;
7501;SDS011;3792;47.740;7.606;2023-04-01T05:13:27;1.93;;;0.97;;
7501;SDS011;3792;47.740;7.606;2023-04-01T05:15:56;2.63;;;1.00;;
7501;SDS011;3792;47.740;7.606;2023-04-01T05:18:23;3.63;;;0.97;;
7501;SDS011;3792;47.740;7.606;2023-04-01T05:20:50;2.77;;;1.07;;
7501;SDS011;3792;47.740;7.606;2023-04-01T05:23:19;4.63;;;1.20;;
7501;SDS011;3792;47.740;7.606;2023-04-01T05:25:47;2.60;;;0.93;;
7501;SDS011;3792;47.740;7.606;2023-04-01T05:28:16;2.70;;;1.10;;
7501;SDS011;3792;47.740;7.606;2023-04-01T05:30:43;5.47;;;1.80;;
7501;SDS011;3792;47.740;7.606;2023-04-01T05:33:12;3.23;;;1.10;;
7501;SDS011;3792;47.740;7.606;2023-04-01T05:35:40;3.10;;;1.10;;
7501;SDS011;3792;47.740;7.606;2023-04-01T05:38:07;3.07;;;0.90;;
7501;SDS011;3792;47.740;7.606;2023-04-01T05:40:34;5.13;;;1.40;;
7501;SDS011;3792;47.740;7.606;2023-04-01T05:43:01;2.20;;;0.90;;
7501;SDS011;3792;47.740;7.606;2023-04-01T05:45:28;4.20;;;1.70;;
7501;SDS011;3792;47.740;7.606;2023-04-01T05:47:55;5.00;;;1.30;;
7501;SDS011;3792;47.740;7.606;2023-04-01T05:50:30;2.40;;;1.20;;
7501;SDS011;3792;47.740;7.606;2023-04-01T05:52:57;1.80;;;0.87;;
7501;SDS011;3792;47.740;7.606;2023-04-01T05:55:24;2.17;;;0.60;;
7501;SDS011;3792;47.740;7.606;2023-04-01T05:57:52;3.07;;;0.80;;
7501;SDS011;3792;47.740;7.606;2023-04-01T06:00:19;2.63;;;0.87;;
7501;SDS011;3792;47.740;7.606;2023-04-01T06:02:47;2.10;;;0.90;;
7501;SDS011;3792;47.740;7.606;2023-04-01T06:05:17;5.90;;;1.27;;
7501;SDS011;3792;47.740;7.606;2023-04-01T06:07:47;3.17;;;1.00;;
7501;SDS011;3792;47.740;7.606;2023-04-01T06:10:17;4.97;;;1.00;;
7501;SDS011;3792;47.740;7.606;2023-04-01T06:12:54;1.57;;;0.90;;
7501;SDS011;3792;47.740;7.606;2023-04-01T06:15:43;2.10;;;0.80;;
7501;SDS011;3792;47.740;7.606;2023-04-01T06:24:17;4.00;;;1.47;;
7501;SDS011;3792;47.740;7.606;2023-04-01T06:27:03;5.77;;;1.50;;
7501;SDS011;3792;47.740;7.606;2023-04-01T06:29:57;1.70;;;0.70;;
7501;SDS011;3792;47.740;7.606;2023-04-01T06:32:38;1.50;;;0.97;;
7501;SDS011;3792;47.740;7.606;2023-04-01T06:35:30;4.50;;;0.80;;
7501;SDS011;3792;47.740;7.606;2023-04-01T06:38:13;3.00;;;1.00;;
7501;SDS011;3792;47.740;7.606;2023-04-01T06:41:02;3.67;;;1.00;;
7501;SDS011;3792;47.740;7.606;2023-04-01T06:43:50;2.07;;;0.83;;
7501;SDS011;3792;47.740;7.606;2023-04-01T06:46:27;3.97;;;0.80;;
7501;SDS011;3792;47.740;7.606;2023-04-01T06:49:07;2.93;;;0.90;;
7501;SDS011;3792;47.740;7.606;2023-04-01T06:51:48;2.40;;;0.83;;
7501;SDS011;3792;47.740;7.606;2023-04-01T06:54:22;1.60;;;0.87;;
7501;SDS011;3792;47.740;7.606;2023-04-01T06:56:57;4.60;;;1.00;;
7501;SDS011;3792;47.740;7.606;2023-04-01T06:59:28;6.60;;;2.57;;
7501;SDS011;3792;47.740;7.606;2023-04-01T07:01:58;4.23;;;1.10;;
7501;SDS011;3792;47.740;7.606;2023-04-01T07:04:29;1.83;;;0.80;;
7501;SDS011;3792;47.740;7.606;2023-04-01T07:06:59;2.43;;;0.83;;
7501;SDS011;3792;47.740;7.606;2023-04-01T07:09:31;1.43;;;0.63;;
7501;SDS011;3792;47.740;7.606;2023-04-01T07:12:04;4.80;;;1.27;;
7501;SDS011;3792;47.740;7.606;2023-04-01T07:14:39;3.63;;;1.17;;
7501;SDS011;3792;47.740;7.606;2023-04-01T07:17:08;2.93;;;1.20;;
7501;SDS011;3792;47.740;7.606;2023-04-01T07:19:42;2.30;;;0.93;;
7501;SDS011;3792;47.740;7.606;2023-04-01T07:22:15;2.83;;;1.20;;
7501;SDS011;3792;47.740;7.606;2023-04-01T07:24:50;3.07;;;1.10;;
7501;SDS011;3792;47.740;7.606;2023-04-01T07:27:22;2.67;;;1.10;;
7501;SDS011;3792;47.740;7.606;2023-04-01T07:29:50;3.67;;;1.80;;
7501;SDS011;3792;47.740;7.606;2023-04-01T07:32:19;1.77;;;0.97;;
7501;SDS011;3792;47.740;7.606;2023-04-01T07:35:01;2.80;;;1.07;;
7501;SDS011;3792;47.740;7.606;2023-04-01T07:37:37;3.67;;;1.07;;
7501;SDS011;3792;47.740;7.606;2023-04-01T07:40:15;4.90;;;1.20;;
7501;SDS011;3792;47.740;7.606;2023-04-01T07:43:05;3.60;;;1.03;;
7501;SDS011;3792;47.740;7.606;2023-04-01T07:45:48;3.53;;;1.30;;
7501;SDS011;3792;47.740;7.606;2023-04-01T07:48:21;3.70;;;1.20;;
7501;SDS011;3792;47.740;7.606;2023-04-01T07:50:54;3.53;;;1.47;;
7501;SDS011;3792;47.740;7.606;2023-04-01T07:53:29;2.50;;;1.00;;
7501;SDS011;3792;47.740;7.606;2023-04-01T07:56:05;2.77;;;1.23;;
7501;SDS011;3792;47.740;7.606;2023-04-01T07:58:39;4.67;;;1.47;;
7501;SDS011;3792;47.740;7.606;2023-04-01T08:01:17;2.73;;;1.00;;
7501;SDS011;3792;47.740;7.606;2023-04-01T08:04:01;1.17;;;0.93;;
7501;SDS011;3792;47.740;7.606;2023-04-01T08:06:45;1.10;;;1.00;;
7501;SDS011;3792;47.740;7.606;2023-04-01T08:09:19;1.00;;;0.70;;
7501;SDS011;3792;47.740;7.606;2023-04-01T08:12:04;1.23;;;0.70;;
7501;SDS011;3792;47.740;7.606;2023-04-01T08:14:44;2.77;;;1.10;;
7501;SDS011;3792;47.740;7.606;2023-04-01T08:17:17;1.33;;;0.70;;
7501;SDS011;3792;47.740;7.606;2023-04-01T08:20:01;3.10;;;0.80;;
7501;SDS011;3792;47.740;7.606;2023-04-01T08:22:45;1.83;;;0.70;;
7501;SDS011;3792;47.740;7.606;2023-04-01T08:25:16;2.03;;;0.70;;
7501;SDS011;3792;47.740;7.606;2023-04-01T08:27:47;2.67;;;0.70;;
7501;SDS011;3792;47.740;7.606;2023-04-01T08:30:19;0.80;;;0.60;;
7501;SDS011;3792;47.740;7.606;2023-04-01T08:32:49;1.13;;;0.70;;
7501;SDS011;3792;47.740;7.606;2023-04-01T08:35:24;5.10;;;2.10;;
7501;SDS011;3792;47.740;7.606;2023-04-01T08:37:56;4.17;;;1.40;;
7501;SDS011;3792;47.740;7.606;2023-04-01T08:40:51;2.40;;;0.77;;
7501;SDS011;3792;47.740;7.606;2023-04-01T08:43:28;1.17;;;1.07;;
7501;SDS011;3792;47.740;7.606;2023-04-01T08:46:22;2.63;;;0.90;;
7501;SDS011;3792;47.740;7.606;2023-04-01T08:49:09;2.20;;;0.80;;
7501;SDS011;3792;47.740;7.606;2023-04-01T08:51:53;2.50;;;0.90;;
7501;SDS011;3792;47.740;7.606;2023-04-01T08:54:43;2.53;;;1.00;;
7501;SDS011;3792;47.740;7.606;2023-04-01T08:57:38;2.10;;;0.83;;
7501;SDS011;3792;47.740;7.606;2023-04-01T09:00:19;2.77;;;1.10;;
7501;SDS011;3792;47.740;7.606;2023-04-01T09:03:07;2.30;;;0.87;;
7501;SDS011;3792;47.740;7.606;2023-04-01T09:08:55;2.73;;;0.90;;
7501;SDS011;3792;47.740;7.606;2023-04-01T09:11:46;2.97;;;0.90;;
7501;SDS011;3792;47.740;7.606;2023-04-01T09:14:40;2.03;;;1.00;;
7501;SDS011;3792;47.740;7.606;2023-04-01T09:20:43;1.33;;;0.70;;
7501;SDS011;3792;47.740;7.606;2023-04-01T09:26:25;4.33;;;0.87;;
7501;SDS011;3792;47.740;7.606;2023-04-01T09:29:13;1.07;;;0.80;;
7501;SDS011;3792;47.740;7.606;2023-04-01T09:31:53;2.63;;;0.87;;
7501;SDS011;3792;47.740;7.606;2023-04-01T09:34:40;2.63;;;1.10;;
7501;SDS011;3792;47.740;7.606;2023-04-01T09:37:25;1.40;;;0.87;;
7501;SDS011;3792;47.740;7.606;2023-04-01T09:40:16;0.80;;;0.60;;
7501;SDS011;3792;47.740;7.606;2023-04-01T09:42:57;2.20;;;1.20;;
7501;SDS011;3792;47.740;7.606;2023-04-01T09:45:44;2.00;;;0.80;;
7501;SDS011;3792;47.740;7.606;2023-04-01T09:48:22;4.23;;;0.87;;
7501;SDS011;3792;47.740;7.606;2023-04-01T09:51:02;2.70;;;0.97;;
7501;SDS011;3792;47.740;7.606;2023-04-01T09:53:42;3.63;;;1.30;;
7501;SDS011;3792;47.740;7.606;2023-04-01T10:11:44;2.03;;;1.00;;
7501;SDS011;3792;47.740;7.606;2023-04-01T10:14:44;2.90;;;0.60;;
7501;SDS011;3792;47.740;7.606;2023-04-01T10:17:55;2.40;;;0.80;;
7501;SDS011;3792;47.740;7.606;2023-04-01T10:20:59;2.07;;;0.80;;
7501;SDS011;3792;47.740;7.606;2023-04-01T10:23:43;2.03;;;0.70;;
7501;SDS011;3792;47.740;7.606;2023-04-01T10:26:28;3.17;;;0.80;;
7501;SDS011;3792;47.740;7.606;2023-04-01T10:29:23;1.77;;;0.80;;
7501;SDS011;3792;47.740;7.606;2023-04-01T10:38:41;1.93;;;1.07;;
7501;SDS011;3792;47.740;7.606;2023-04-01T10:41:44;2.73;;;0.80;;
7501;SDS011;3792;47.740;7.606;2023-04-01T10:44:50;0.70;;;0.70;;
7501;SDS011;3792;47.740;7.606;2023-04-01T10:48:02;1.07;;;0.70;;
7501;SDS011;3792;47.740;7.606;2023-04-01T10:51:02;3.43;;;1.00;;
7501;SDS011;3792;47.740;7.606;2023-04-01T10:53:40;2.97;;;0.80;;
7501;SDS011;3792;47.740;7.606;2023-04-01T10:56:22;1.67;;;0.60;;
7501;SDS011;3792;47.740;7.606;2023-04-01T10:59:22;1.77;;;0.83;;
7501;SDS011;3792;47.740;7.606;2023-04-01T11:05:34;2.03;;;0.53;;
7501;SDS011;3792;47.740;7.606;2023-04-01T11:14:38;2.53;;;0.63;;
7501;SDS011;3792;47.740;7.606;2023-04-01T11:17:34;4.10;;;0.83;;
7501;SDS011;3792;47.740;7.606;2023-04-01T11:20:40;1.30;;;1.00;;
7501;SDS011;3792;47.740;7.606;2023-04-01T11:23:29;2.90;;;0.70;;
7501;SDS011;3792;47.740;7.606;2023-04-01T11:26:25;1.00;;;0.60;;
7501;SDS011;3792;47.740;7.606;2023-04-01T11:29:15;2.23;;;0.87;;
7501;SDS011;3792;47.740;7.606;2023-04-01T11:32:12;0.80;;;0.60;;
7501;SDS011;3792;47.740;7.606;2023-04-01T11:34:58;1.40;;;0.73;;
7501;SDS011;3792;47.740;7.606;2023-04-01T11:37:48;1.43;;;0.70;;
7501;SDS011;3792;47.740;7.606;2023-04-01T11:40:25;5.47;;;4.33;;
7501;SDS011;3792;47.740;7.606;2023-04-01T11:43:00;1.27;;;0.60;;
7501;SDS011;3792;47.740;7.606;2023-04-01T11:45:34;2.20;;;2.00;;
7501;SDS011;3792;47.740;7.606;2023-04-01T11:48:18;1.13;;;0.63;;
7501;SDS011;3792;47.740;7.606;2023-04-01T11:50:56;3.30;;;0.60;;
7501;SDS011;3792;47.740;7.606;2023-04-01T11:53:37;1.83;;;1.10;;
7501;SDS011;3792;47.740;7.606;2023-04-01T11:56:18;1.73;;;0.77;;
7501;SDS011;3792;47.740;7.606;2023-04-01T11:59:02;1.23;;;0.87;;
7501;SDS011;3792;47.740;7.606;2023-04-01T12:01:49;0.83;;;0.70;;
7501;SDS011;3792;47.740;7.606;2023-04-01T12:04:32;1.40;;;0.90;;
7501;SDS011;3792;47.740;7.606;2023-04-01T12:07:15;0.60;;;0.60;;
7501;SDS011;3792;47.740;7.606;2023-04-01T12:09:52;1.17;;;0.77;;
7501;SDS011;3792;47.740;7.606;2023-04-01T12:12:31;1.57;;;1.03;;
7501;SDS011;3792;47.740;7.606;2023-04-01T12:15:16;3.60;;;1.07;;
7501;SDS011;3792;47.740;7.606;2023-04-01T12:18:00;0.50;;;0.50;;
7501;SDS011;3792;47.740;7.606;2023-04-01T12:20:48;1.73;;;0.70;;
7501;SDS011;3792;47.740;7.606;2023-04-01T12:23:27;1.43;;;0.90;;
7501;SDS011;3792;47.740;7.606;2023-04-01T12:26:30;3.30;;;0.80;;
7501;SDS011;3792;47.740;7.606;2023-04-01T12:29:21;1.03;;;0.67;;
7501;SDS011;3792;47.740;7.606;2023-04-01T12:32:15;1.73;;;0.73;;
7501;SDS011;3792;47.740;7.606;2023-04-01T12:34:55;2.87;;;1.00;;
7501;SDS011;3792;47.740;7.606;2023-04-01T12:37:40;2.37;;;1.23;;
7501;SDS011;3792;47.740;7.606;2023-04-01T12:43:17;0.87;;;0.80;;
7501;SDS011;3792;47.740;7.606;2023-04-01T12:45:59;1.57;;;0.80;;
7501;SDS011;3792;47.740;7.606;2023-04-01T12:48:36;4.10;;;1.00;;
7501;SDS011;3792;47.740;7.606;2023-04-01T12:54:46;1.77;;;1.30;;
7501;SDS011;3792;47.740;7.606;2023-04-01T13:00:27;3.13;;;0.90;;
7501;SDS011;3792;47.740;7.606;2023-04-01T13:03:11;0.60;;;0.60;;
7501;SDS011;3792;47.740;7.606;2023-04-01T13:08:53;2.50;;;0.70;;
7501;SDS011;3792;47.740;7.606;2023-04-01T13:11:29;1.83;;;0.90;;
7501;SDS011;3792;47.740;7.606;2023-04-01T13:14:10;1.10;;;1.00;;
7501;SDS011;3792;47.740;7.606;2023-04-01T13:16:51;1.87;;;0.93;;
7501;SDS011;3792;47.740;7.606;2023-04-01T13:19:24;1.67;;;1.30;;
7501;SDS011;3792;47.740;7.606;2023-04-01T13:21:58;2.13;;;1.00;;
7501;SDS011;3792;47.740;7.606;2023-04-01T13:24:37;2.00;;;0.80;;
7501;SDS011;3792;47.740;7.606;2023-04-01T13:27:14;0.87;;;0.67;;
7501;SDS011;3792;47.740;7.606;2023-04-01T13:29:57;2.10;;;0.60;;
7501;SDS011;3792;47.740;7.606;2023-04-01T13:32:33;1.30;;;0.70;;
7501;SDS011;3792;47.740;7.606;2023-04-01T13:35:15;0.40;;;0.40;;
7501;SDS011;3792;47.740;7.606;2023-04-01T13:37:54;1.43;;;0.60;;
7501;SDS011;3792;47.740;7.606;2023-04-01T13:40:34;0.60;;;0.60;;
7501;SDS011;3792;47.740;7.606;2023-04-01T13:43:10;1.53;;;0.50;;
7501;SDS011;3792;47.740;7.606;2023-04-01T13:45:48;0.73;;;0.60;;
7501;SDS011;3792;47.740;7.606;2023-04-01T13:48:48;2.33;;;0.60;;
7501;SDS011;3792;47.740;7.606;2023-04-01T13:51:38;1.90;;;0.80;;
7501;SDS011;3792;47.740;7.606;2023-04-01T13:54:36;0.77;;;0.60;;
7501;SDS011;3792;47.740;7.606;2023-04-01T13:57:29;1.17;;;0.50;;
7501;SDS011;3792;47.740;7.606;2023-04-01T14:00:18;0.43;;;0.33;;
7501;SDS011;3792;47.740;7.606;2023-04-01T14:03:03;1.23;;;0.60;;
7501;SDS011;3792;47.740;7.606;2023-04-01T14:08:50;1.50;;;0.57;;
7501;SDS011;3792;47.740;7.606;2023-04-01T14:11:32;0.73;;;0.40;;
7501;SDS011;3792;47.740;7.606;2023-04-01T14:14:05;0.77;;;0.40;;
7501;SDS011;3792;47.740;7.606;2023-04-01T14:16:53;0.57;;;0.50;;
7501;SDS011;3792;47.740;7.606;2023-04-01T14:19:32;0.67;;;0.33;;
7501;SDS011;3792;47.740;7.606;2023-04-01T14:22:13;0.97;;;0.40;;
7501;SDS011;3792;47.740;7.606;2023-04-01T14:28:01;0.93;;;0.80;;
7501;SDS011;3792;47.740;7.606;2023-04-01T14:30:41;0.43;;;0.43;;
7501;SDS011;3792;47.740;7.606;2023-04-01T14:33:22;0.87;;;0.40;;
7501;SDS011;3792;47.740;7.606;2023-04-01T14:36:02;1.47;;;0.60;;
7501;SDS011;3792;47.740;7.606;2023-04-01T14:38:47;0.60;;;0.50;;
7501;SDS011;3792;47.740;7.606;2023-04-01T14:41:28;0.50;;;0.50;;
7501;SDS011;3792;47.740;7.606;2023-04-01T14:47:21;1.13;;;0.40;;
7501;SDS011;3792;47.740;7.606;2023-04-01T14:50:05;2.03;;;0.80;;
7501;SDS011;3792;47.740;7.606;2023-04-01T14:52:36;0.80;;;0.80;;
7501;SDS011;3792;47.740;7.606;2023-04-01T14:55:15;0.73;;;0.70;;
7501;SDS011;3792;47.740;7.606;2023-04-01T14:57:57;0.93;;;0.90;;
7501;SDS011;3792;47.740;7.606;2023-04-01T15:00:26;1.30;;;0.70;;
7501;SDS011;3792;47.740;7.606;2023-04-01T15:03:07;1.03;;;0.70;;
7501;SDS011;3792;47.740;7.606;2023-04-01T15:05:44;0.40;;;0.40;;
7501;SDS011;3792;47.740;7.606;2023-04-01T15:08:18;0.70;;;0.50;;
7501;SDS011;3792;47.740;7.606;2023-04-01T15:13:55;0.63;;;0.40;;
7501;SDS011;3792;47.740;7.606;2023-04-01T15:16:41;0.77;;;0.50;;
7501;SDS011;3792;47.740;7.606;2023-04-01T15:19:18;0.80;;;0.57;;
7501;SDS011;3792;47.740;7.606;2023-04-01T15:22:11;0.47;;;0.30;;
7501;SDS011;3792;47.740;7.606;2023-04-01T15:24:56;0.73;;;0.47;;
7501;SDS011;3792;47.740;7.606;2023-04-01T15:27:33;1.70;;;0.40;;
7501;SDS011;3792;47.740;7.606;2023-04-01T15:30:17;0.40;;;0.40;;
7501;SDS011;3792;47.740;7.606;2023-04-01T15:32:58;0.60;;;0.40;;
7501;SDS011;3792;47.740;7.606;2023-04-01T15:35:51;0.50;;;0.50;;
7501;SDS011;3792;47.740;7.606;2023-04-01T15:38:34;1.17;;;0.50;;
7501;SDS011;3792;47.740;7.606;2023-04-01T15:41:09;0.20;;;0.20;;
7501;SDS011;3792;47.740;7.606;2023-04-01T15:43:41;0.40;;;0.40;;
7501;SDS011;3792;47.740;7.606;2023-04-01T15:46:23;0.70;;;0.50;;
7501;SDS011;3792;47.740;7.606;2023-04-01T15:49:06;0.50;;;0.40;;
7501;SDS011;3792;47.740;7.606;2023-04-01T15:51:46;0.30;;;0.30;;
7501;SDS011;3792;47.740;7.606;2023-04-01T15:57:37;0.40;;;0.40;;
7501;SDS011;3792;47.740;7.606;2023-04-01T16:00:25;0.90;;;0.60;;
7501;SDS011;3792;47.740;7.606;2023-04-01T16:05:47;4.20;;;1.27;;
7501;SDS011;3792;47.740;7.606;2023-04-01T16:08:33;1.10;;;1.00;;
7501;SDS011;3792;47.740;7.606;2023-04-01T16:11:28;1.47;;;0.60;;
7501;SDS011;3792;47.740;7.606;2023-04-01T16:14:11;0.93;;;0.80;;
7501;SDS011;3792;47.740;7.606;2023-04-01T16:16:51;0.70;;;0.70;;
7501;SDS011;3792;47.740;7.606;2023-04-01T16:19:32;3.37;;;1.30;;
7501;SDS011;3792;47.740;7.606;2023-04-01T16:22:16;1.60;;;1.50;;
7501;SDS011;3792;47.740;7.606;2023-04-01T16:24:51;2.27;;;1.00;;
7501;SDS011;3792;47.740;7.606;2023-04-01T16:27:43;1.83;;;1.00;;
7501;SDS011;3792;47.740;7.606;2023-04-01T16:30:23;1.60;;;0.63;;
7501;SDS011;3792;47.740;7.606;2023-04-01T16:33:01;3.60;;;1.07;;
7501;SDS011;3792;47.740;7.606;2023-04-01T16:35:34;1.77;;;1.00;;
7501;SDS011;3792;47.740;7.606;2023-04-01T16:38:09;2.57;;;1.60;;
7501;SDS011;3792;47.740;7.606;2023-04-01T16:40:44;3.20;;;1.20;;
7501;SDS011;3792;47.740;7.606;2023-04-01T16:43:21;4.37;;;2.93;;
7501;SDS011;3792;47.740;7.606;2023-04-01T16:45:57;0.97;;;0.80;;
7501;SDS011;3792;47.740;7.606;2023-04-01T16:48:48;3.67;;;2.03;;
7501;SDS011;3792;47.740;7.606;2023-04-01T16:51:24;7.07;;;3.53;;
7501;SDS011;3792;47.740;7.606;2023-04-01T16:53:52;4.37;;;2.17;;
7501;SDS011;3792;47.740;7.606;2023-04-01T16:56:36;8.20;;;4.60;;
7501;SDS011;3792;47.740;7.606;2023-04-01T16:59:13;3.47;;;1.40;;
7501;SDS011;3792;47.740;7.606;2023-04-01T17:01:47;5.43;;;3.43;;
7501;SDS011;3792;47.740;7.606;2023-04-01T17:04:19;3.70;;;2.77;;
7501;SDS011;3792;47.740;7.606;2023-04-01T17:06:53;0.80;;;0.80;;
7501;SDS011;3792;47.740;7.606;2023-04-01T17:09:33;4.30;;;1.20;;
7501;SDS011;3792;47.740;7.606;2023-04-01T17:12:12;1.57;;;1.00;;
7501;SDS011;3792;47.740;7.606;2023-04-01T17:14:48;1.97;;;1.60;;
7501;SDS011;3792;47.740;7.606;2023-04-01T17:17:34;5.10;;;3.10;;
7501;SDS011;3792;47.740;7.606;2023-04-01T17:20:13;2.30;;;1.17;;
7501;SDS011;3792;47.740;7.606;2023-04-01T17:22:52;0.97;;;0.83;;
7501;SDS011;3792;47.740;7.606;2023-04-01T17:25:30;1.17;;;0.80;;
7501;SDS011;3792;47.740;7.606;2023-04-01T17:28:06;0.70;;;0.70;;
7501;SDS011;3792;47.740;7.606;2023-04-01T17:30:46;1.63;;;1.43;;
7501;SDS011;3792;47.740;7.606;2023-04-01T17:36:21;1.13;;;0.70;;
7501;SDS011;3792;47.740;7.606;2023-04-01T17:39:04;1.07;;;0.80;;
7501;SDS011;3792;47.740;7.606;2023-04-01T17:41:46;0.80;;;0.80;;
7501;SDS011;3792;47.740;7.606;2023-04-01T17:44:27;2.10;;;0.70;;